sensor_id;sensor_type;location;lat;lon;timestamp;P1;durP1;ratioP1;P2;durP2;ratioP2
68803;SDS011;55787;52.678;13.314;2023-02-28T00:01:41;9.35;;;2.35;;
68803;SDS011;55787;52.678;13.314;2023-02-28T00:04:07;9.55;;;2.10;;
68803;SDS011;55787;52.678;13.314;2023-02-28T00:06:35;9.25;;;2.40;;
68803;SDS011;55787;52.678;13.314;2023-02-28T00:09:02;9.45;;;2.33;;
68803;SDS011;55787;52.678;13.314;2023-02-28T00:11:28;11.00;;;2.20;;
68803;SDS011;55787;52.678;13.314;2023-02-28T00:13:55;9.38;;;2.08;;
68803;SDS011;55787;52.678;13.314;2023-02-28T00:16:22;9.32;;;2.25;;
68803;SDS011;55787;52.678;13.314;2023-02-28T00:18:50;9.13;;;2.03;;
68803;SDS011;55787;52.678;13.314;2023-02-28T00:21:17;8.80;;;2.10;;
68803;SDS011;55787;52.678;13.314;2023-02-28T00:23:44;8.90;;;2.30;;
68803;SDS011;55787;52.678;13.314;2023-02-28T00:26:11;7.63;;;1.90;;
68803;SDS011;55787;52.678;13.314;2023-02-28T00:28:38;8.50;;;2.28;;
68803;SDS011;55787;52.678;13.314;2023-02-28T00:31:05;10.70;;;1.95;;
68803;SDS011;55787;52.678;13.314;2023-02-28T00:33:32;10.40;;;2.30;;
68803;SDS011;55787;52.678;13.314;2023-02-28T00:36:08;9.03;;;1.90;;
68803;SDS011;55787;52.678;13.314;2023-02-28T00:38:37;11.40;;;2.33;;
68803;SDS011;55787;52.678;13.314;2023-02-28T00:41:05;9.23;;;2.47;;
68803;SDS011;55787;52.678;13.314;2023-02-28T00:43:36;8.57;;;2.30;;
68803;SDS011;55787;52.678;13.314;2023-02-28T00:46:04;9.50;;;2.28;;
68803;SDS011;55787;52.678;13.314;2023-02-28T00:48:32;7.87;;;2.00;;
68803;SDS011;55787;52.678;13.314;2023-02-28T00:50:59;10.85;;;2.80;;
68803;SDS011;55787;52.678;13.314;2023-02-28T00:53:25;9.45;;;2.10;;
68803;SDS011;55787;52.678;13.314;2023-02-28T00:55:52;8.93;;;2.40;;
68803;SDS011;55787;52.678;13.314;2023-02-28T00:58:19;10.65;;;2.60;;
68803;SDS011;55787;52.678;13.314;2023-02-28T01:00:45;8.77;;;2.07;;
68803;SDS011;55787;52.678;13.314;2023-02-28T01:03:18;7.43;;;1.83;;
68803;SDS011;55787;52.678;13.314;2023-02-28T01:05:45;8.82;;;2.15;;
68803;SDS011;55787;52.678;13.314;2023-02-28T01:08:13;7.68;;;1.83;;
68803;SDS011;55787;52.678;13.314;2023-02-28T01:10:40;8.73;;;2.40;;
68803;SDS011;55787;52.678;13.314;2023-02-28T01:13:07;8.83;;;2.27;;
68803;SDS011;55787;52.678;13.314;2023-02-28T01:15:34;8.52;;;2.33;;
68803;SDS011;55787;52.678;13.314;2023-02-28T01:18:00;8.55;;;2.10;;
68803;SDS011;55787;52.678;13.314;2023-02-28T01:20:27;8.13;;;2.17;;
68803;SDS011;55787;52.678;13.314;2023-02-28T01:22:54;8.80;;;2.05;;
68803;SDS011;55787;52.678;13.314;2023-02-28T01:25:20;10.60;;;1.87;;
68803;SDS011;55787;52.678;13.314;2023-02-28T01:27:47;8.75;;;1.80;;
68803;SDS011;55787;52.678;13.314;2023-02-28T01:30:14;9.30;;;2.03;;
68803;SDS011;55787;52.678;13.314;2023-02-28T01:32:40;7.85;;;2.05;;
68803;SDS011;55787;52.678;13.314;2023-02-28T01:35:07;9.82;;;2.38;;
68803;SDS011;55787;52.678;13.314;2023-02-28T01:37:35;8.90;;;2.13;;
68803;SDS011;55787;52.678;13.314;2023-02-28T01:40:03;11.05;;;2.30;;
68803;SDS011;55787;52.678;13.314;2023-02-28T01:42:30;8.48;;;2.05;;
68803;SDS011;55787;52.678;13.314;2023-02-28T01:47:48;9.18;;;2.25;;
68803;SDS011;55787;52.678;13.314;2023-02-28T01:50:19;9.10;;;2.20;;
68803;SDS011;55787;52.678;13.314;2023-02-28T01:52:49;8.98;;;2.10;;
68803;SDS011;55787;52.678;13.314;2023-02-28T01:55:18;10.07;;;2.33;;
68803;SDS011;55787;52.678;13.314;2023-02-28T01:57:46;9.32;;;2.00;;
68803;SDS011;55787;52.678;13.314;2023-02-28T02:00:18;9.80;;;2.17;;
68803;SDS011;55787;52.678;13.314;2023-02-28T02:02:49;10.03;;;2.30;;
68803;SDS011;55787;52.678;13.314;2023-02-28T02:05:22;9.50;;;1.98;;
68803;SDS011;55787;52.678;13.314;2023-02-28T02:07:55;9.73;;;2.25;;
68803;SDS011;55787;52.678;13.314;2023-02-28T02:18:12;9.23;;;1.95;;
68803;SDS011;55787;52.678;13.314;2023-02-28T02:23:31;8.55;;;1.88;;
68803;SDS011;55787;52.678;13.314;2023-02-28T02:36:49;8.90;;;2.00;;
68803;SDS011;55787;52.678;13.314;2023-02-28T02:42:14;8.93;;;1.80;;
68803;SDS011;55787;52.678;13.314;2023-02-28T02:44:56;7.65;;;1.63;;
68803;SDS011;55787;52.678;13.314;2023-02-28T02:47:28;10.73;;;2.15;;
68803;SDS011;55787;52.678;13.314;2023-02-28T02:49:57;8.30;;;1.70;;
68803;SDS011;55787;52.678;13.314;2023-02-28T02:52:33;8.38;;;1.95;;
68803;SDS011;55787;52.678;13.314;2023-02-28T02:55:05;8.37;;;1.83;;
68803;SDS011;55787;52.678;13.314;2023-02-28T02:57:43;7.38;;;1.90;;
68803;SDS011;55787;52.678;13.314;2023-02-28T03:00:14;9.60;;;2.10;;
68803;SDS011;55787;52.678;13.314;2023-02-28T03:02:45;9.35;;;2.10;;
68803;SDS011;55787;52.678;13.314;2023-02-28T03:05:35;9.23;;;2.28;;
68803;SDS011;55787;52.678;13.314;2023-02-28T03:08:05;8.87;;;1.67;;
68803;SDS011;55787;52.678;13.314;2023-02-28T03:10:36;9.45;;;1.88;;
68803;SDS011;55787;52.678;13.314;2023-02-28T03:16:32;8.38;;;1.90;;
68803;SDS011;55787;52.678;13.314;2023-02-28T03:25:05;8.40;;;2.08;;
68803;SDS011;55787;52.678;13.314;2023-02-28T03:33:39;8.85;;;1.70;;
68803;SDS011;55787;52.678;13.314;2023-02-28T03:36:12;9.67;;;2.00;;
68803;SDS011;55787;52.678;13.314;2023-02-28T03:38:46;10.60;;;2.50;;
68803;SDS011;55787;52.678;13.314;2023-02-28T03:41:19;10.13;;;1.85;;
68803;SDS011;55787;52.678;13.314;2023-02-28T03:43:50;11.07;;;2.25;;
68803;SDS011;55787;52.678;13.314;2023-02-28T03:46:22;8.45;;;1.83;;
68803;SDS011;55787;52.678;13.314;2023-02-28T03:48:54;8.80;;;1.83;;
68803;SDS011;55787;52.678;13.314;2023-02-28T03:51:26;8.68;;;1.95;;
68803;SDS011;55787;52.678;13.314;2023-02-28T03:53:59;9.20;;;1.90;;
68803;SDS011;55787;52.678;13.314;2023-02-28T03:56:40;8.68;;;1.67;;
68803;SDS011;55787;52.678;13.314;2023-02-28T03:59:34;8.40;;;1.80;;
68803;SDS011;55787;52.678;13.314;2023-02-28T04:02:08;9.67;;;2.37;;
68803;SDS011;55787;52.678;13.314;2023-02-28T04:04:35;10.85;;;2.00;;
68803;SDS011;55787;52.678;13.314;2023-02-28T04:07:06;10.02;;;1.90;;
68803;SDS011;55787;52.678;13.314;2023-02-28T04:09:34;7.93;;;1.98;;
68803;SDS011;55787;52.678;13.314;2023-02-28T04:12:01;9.63;;;1.95;;
68803;SDS011;55787;52.678;13.314;2023-02-28T04:14:28;9.03;;;2.13;;
68803;SDS011;55787;52.678;13.314;2023-02-28T04:16:54;8.60;;;2.00;;
68803;SDS011;55787;52.678;13.314;2023-02-28T04:19:21;8.02;;;1.88;;
68803;SDS011;55787;52.678;13.314;2023-02-28T04:21:49;10.48;;;2.17;;
68803;SDS011;55787;52.678;13.314;2023-02-28T04:24:21;8.85;;;2.03;;
68803;SDS011;55787;52.678;13.314;2023-02-28T04:26:50;8.20;;;1.90;;
68803;SDS011;55787;52.678;13.314;2023-02-28T04:29:20;10.05;;;2.53;;
68803;SDS011;55787;52.678;13.314;2023-02-28T04:31:49;9.85;;;2.60;;
68803;SDS011;55787;52.678;13.314;2023-02-28T04:34:16;9.10;;;2.13;;
68803;SDS011;55787;52.678;13.314;2023-02-28T04:36:42;8.48;;;1.85;;
68803;SDS011;55787;52.678;13.314;2023-02-28T04:39:09;9.07;;;2.00;;
68803;SDS011;55787;52.678;13.314;2023-02-28T04:41:36;7.95;;;1.98;;
68803;SDS011;55787;52.678;13.314;2023-02-28T04:44:03;8.20;;;2.30;;
68803;SDS011;55787;52.678;13.314;2023-02-28T04:46:30;9.55;;;1.80;;
68803;SDS011;55787;52.678;13.314;2023-02-28T04:48:57;11.20;;;2.15;;
68803;SDS011;55787;52.678;13.314;2023-02-28T04:51:24;8.03;;;1.87;;
68803;SDS011;55787;52.678;13.314;2023-02-28T04:53:51;10.05;;;2.35;;
68803;SDS011;55787;52.678;13.314;2023-02-28T04:56:18;10.93;;;2.05;;
68803;SDS011;55787;52.678;13.314;2023-02-28T04:58:45;12.00;;;2.15;;
68803;SDS011;55787;52.678;13.314;2023-02-28T05:01:16;9.88;;;2.30;;
68803;SDS011;55787;52.678;13.314;2023-02-28T05:03:43;8.93;;;2.07;;
68803;SDS011;55787;52.678;13.314;2023-02-28T05:06:10;12.40;;;2.22;;
68803;SDS011;55787;52.678;13.314;2023-02-28T05:08:38;8.43;;;1.95;;
68803;SDS011;55787;52.678;13.314;2023-02-28T05:11:06;7.65;;;1.75;;
68803;SDS011;55787;52.678;13.314;2023-02-28T05:13:42;8.32;;;2.03;;
68803;SDS011;55787;52.678;13.314;2023-02-28T05:16:09;8.23;;;1.80;;
68803;SDS011;55787;52.678;13.314;2023-02-28T05:18:36;7.15;;;1.67;;
68803;SDS011;55787;52.678;13.314;2023-02-28T05:21:04;9.75;;;2.05;;
68803;SDS011;55787;52.678;13.314;2023-02-28T05:23:31;9.13;;;2.28;;
68803;SDS011;55787;52.678;13.314;2023-02-28T05:25:58;11.23;;;2.25;;
68803;SDS011;55787;52.678;13.314;2023-02-28T05:28:25;9.57;;;2.73;;
68803;SDS011;55787;52.678;13.314;2023-02-28T05:30:52;11.32;;;2.20;;
68803;SDS011;55787;52.678;13.314;2023-02-28T05:33:18;10.55;;;2.28;;
68803;SDS011;55787;52.678;13.314;2023-02-28T05:35:45;10.15;;;2.42;;
68803;SDS011;55787;52.678;13.314;2023-02-28T05:38:12;8.65;;;2.13;;
68803;SDS011;55787;52.678;13.314;2023-02-28T05:40:39;10.97;;;2.10;;
68803;SDS011;55787;52.678;13.314;2023-02-28T05:43:07;8.30;;;2.10;;
68803;SDS011;55787;52.678;13.314;2023-02-28T05:45:37;9.02;;;2.25;;
68803;SDS011;55787;52.678;13.314;2023-02-28T05:48:03;9.52;;;2.33;;
68803;SDS011;55787;52.678;13.314;2023-02-28T05:50:30;9.77;;;2.50;;
68803;SDS011;55787;52.678;13.314;2023-02-28T05:52:57;10.33;;;2.10;;
68803;SDS011;55787;52.678;13.314;2023-02-28T05:55:24;9.63;;;2.28;;
68803;SDS011;55787;52.678;13.314;2023-02-28T05:57:50;11.10;;;2.47;;
68803;SDS011;55787;52.678;13.314;2023-02-28T06:00:17;11.43;;;2.90;;
68803;SDS011;55787;52.678;13.314;2023-02-28T06:02:45;10.48;;;2.75;;
68803;SDS011;55787;52.678;13.314;2023-02-28T06:05:16;9.47;;;2.60;;
68803;SDS011;55787;52.678;13.314;2023-02-28T06:07:44;14.05;;;3.28;;
68803;SDS011;55787;52.678;13.314;2023-02-28T06:10:11;11.95;;;3.45;;
68803;SDS011;55787;52.678;13.314;2023-02-28T06:12:38;11.77;;;3.55;;
68803;SDS011;55787;52.678;13.314;2023-02-28T06:15:04;12.63;;;4.18;;
68803;SDS011;55787;52.678;13.314;2023-02-28T06:17:31;13.43;;;4.00;;
68803;SDS011;55787;52.678;13.314;2023-02-28T06:19:58;12.63;;;3.45;;
68803;SDS011;55787;52.678;13.314;2023-02-28T06:22:25;12.65;;;3.28;;
68803;SDS011;55787;52.678;13.314;2023-02-28T06:24:51;10.55;;;2.65;;
68803;SDS011;55787;52.678;13.314;2023-02-28T06:27:19;11.38;;;3.00;;
68803;SDS011;55787;52.678;13.314;2023-02-28T06:29:46;13.63;;;3.90;;
68803;SDS011;55787;52.678;13.314;2023-02-28T06:32:13;13.57;;;3.97;;
68803;SDS011;55787;52.678;13.314;2023-02-28T06:34:40;19.20;;;4.60;;
68803;SDS011;55787;52.678;13.314;2023-02-28T06:37:06;18.65;;;4.20;;
68803;SDS011;55787;52.678;13.314;2023-02-28T06:39:33;14.60;;;4.10;;
68803;SDS011;55787;52.678;13.314;2023-02-28T06:42:00;16.23;;;4.07;;
68803;SDS011;55787;52.678;13.314;2023-02-28T06:44:27;11.73;;;3.50;;
68803;SDS011;55787;52.678;13.314;2023-02-28T06:47:02;11.25;;;3.28;;
68803;SDS011;55787;52.678;13.314;2023-02-28T06:49:32;11.52;;;3.33;;
68803;SDS011;55787;52.678;13.314;2023-02-28T06:52:00;12.98;;;3.83;;
68803;SDS011;55787;52.678;13.314;2023-02-28T06:54:27;13.70;;;3.87;;
68803;SDS011;55787;52.678;13.314;2023-02-28T06:56:54;13.05;;;3.45;;
68803;SDS011;55787;52.678;13.314;2023-02-28T06:59:20;12.93;;;4.00;;
68803;SDS011;55787;52.678;13.314;2023-02-28T07:01:47;13.02;;;3.60;;
68803;SDS011;55787;52.678;13.314;2023-02-28T07:04:14;12.80;;;3.85;;
68803;SDS011;55787;52.678;13.314;2023-02-28T07:06:40;14.47;;;4.23;;
68803;SDS011;55787;52.678;13.314;2023-02-28T07:09:08;14.90;;;4.75;;
68803;SDS011;55787;52.678;13.314;2023-02-28T07:11:34;18.50;;;5.38;;
68803;SDS011;55787;52.678;13.314;2023-02-28T07:14:01;16.80;;;5.57;;
68803;SDS011;55787;52.678;13.314;2023-02-28T07:16:28;18.50;;;5.70;;
68803;SDS011;55787;52.678;13.314;2023-02-28T07:18:54;16.57;;;5.47;;
68803;SDS011;55787;52.678;13.314;2023-02-28T07:21:21;18.30;;;5.90;;
68803;SDS011;55787;52.678;13.314;2023-02-28T07:23:48;16.25;;;5.30;;
68803;SDS011;55787;52.678;13.314;2023-02-28T07:26:16;17.15;;;5.50;;
68803;SDS011;55787;52.678;13.314;2023-02-28T07:28:44;17.73;;;5.53;;
68803;SDS011;55787;52.678;13.314;2023-02-28T07:31:13;17.03;;;5.80;;
68803;SDS011;55787;52.678;13.314;2023-02-28T07:33:40;17.25;;;5.97;;
68803;SDS011;55787;52.678;13.314;2023-02-28T07:36:09;17.52;;;6.10;;
68803;SDS011;55787;52.678;13.314;2023-02-28T07:38:45;15.75;;;6.05;;
68803;SDS011;55787;52.678;13.314;2023-02-28T07:41:17;17.58;;;6.50;;
68803;SDS011;55787;52.678;13.314;2023-02-28T07:43:45;16.00;;;6.90;;
68803;SDS011;55787;52.678;13.314;2023-02-28T07:46:13;15.85;;;6.90;;
68803;SDS011;55787;52.678;13.314;2023-02-28T07:48:41;16.73;;;7.22;;
68803;SDS011;55787;52.678;13.314;2023-02-28T07:51:08;14.50;;;6.45;;
68803;SDS011;55787;52.678;13.314;2023-02-28T07:53:36;15.95;;;6.00;;
68803;SDS011;55787;52.678;13.314;2023-02-28T07:56:02;16.30;;;5.70;;
68803;SDS011;55787;52.678;13.314;2023-02-28T07:58:30;14.23;;;5.15;;
68803;SDS011;55787;52.678;13.314;2023-02-28T08:00:57;13.13;;;4.95;;
68803;SDS011;55787;52.678;13.314;2023-02-28T08:03:24;14.15;;;5.30;;
68803;SDS011;55787;52.678;13.314;2023-02-28T08:05:51;12.07;;;4.30;;
68803;SDS011;55787;52.678;13.314;2023-02-28T08:08:20;13.10;;;4.57;;
68803;SDS011;55787;52.678;13.314;2023-02-28T08:10:47;12.07;;;4.95;;
68803;SDS011;55787;52.678;13.314;2023-02-28T08:13:14;12.07;;;4.35;;
68803;SDS011;55787;52.678;13.314;2023-02-28T08:15:41;12.68;;;4.03;;
68803;SDS011;55787;52.678;13.314;2023-02-28T08:18:09;13.05;;;3.88;;
68803;SDS011;55787;52.678;13.314;2023-02-28T08:20:36;12.17;;;4.03;;
68803;SDS011;55787;52.678;13.314;2023-02-28T08:23:02;14.27;;;4.60;;
68803;SDS011;55787;52.678;13.314;2023-02-28T08:25:29;10.90;;;3.60;;
68803;SDS011;55787;52.678;13.314;2023-02-28T08:27:56;10.88;;;3.53;;
68803;SDS011;55787;52.678;13.314;2023-02-28T08:30:22;11.43;;;3.38;;
68803;SDS011;55787;52.678;13.314;2023-02-28T08:32:49;11.03;;;3.23;;
68803;SDS011;55787;52.678;13.314;2023-02-28T08:35:16;9.68;;;3.20;;
68803;SDS011;55787;52.678;13.314;2023-02-28T08:37:44;10.05;;;3.00;;
68803;SDS011;55787;52.678;13.314;2023-02-28T08:40:11;11.13;;;3.17;;
68803;SDS011;55787;52.678;13.314;2023-02-28T08:42:44;12.13;;;3.25;;
68803;SDS011;55787;52.678;13.314;2023-02-28T08:45:11;9.90;;;2.60;;
68803;SDS011;55787;52.678;13.314;2023-02-28T08:47:38;9.23;;;1.95;;
68803;SDS011;55787;52.678;13.314;2023-02-28T08:50:06;5.97;;;1.20;;
68803;SDS011;55787;52.678;13.314;2023-02-28T08:52:34;7.82;;;2.00;;
68803;SDS011;55787;52.678;13.314;2023-02-28T08:55:00;6.65;;;1.40;;
68803;SDS011;55787;52.678;13.314;2023-02-28T08:57:27;6.50;;;1.30;;
68803;SDS011;55787;52.678;13.314;2023-02-28T08:59:53;6.45;;;1.20;;
68803;SDS011;55787;52.678;13.314;2023-02-28T09:02:20;6.28;;;1.05;;
68803;SDS011;55787;52.678;13.314;2023-02-28T09:04:47;6.00;;;1.00;;
68803;SDS011;55787;52.678;13.314;2023-02-28T09:07:13;5.93;;;1.02;;
68803;SDS011;55787;52.678;13.314;2023-02-28T09:09:40;6.88;;;0.90;;
68803;SDS011;55787;52.678;13.314;2023-02-28T09:12:20;5.72;;;0.80;;
68803;SDS011;55787;52.678;13.314;2023-02-28T09:14:48;5.07;;;0.80;;
68803;SDS011;55787;52.678;13.314;2023-02-28T09:17:15;8.00;;;1.00;;
68803;SDS011;55787;52.678;13.314;2023-02-28T09:19:42;5.25;;;0.80;;
68803;SDS011;55787;52.678;13.314;2023-02-28T09:22:09;5.97;;;0.80;;
68803;SDS011;55787;52.678;13.314;2023-02-28T09:24:37;6.25;;;1.10;;
68803;SDS011;55787;52.678;13.314;2023-02-28T09:27:09;5.20;;;0.70;;
68803;SDS011;55787;52.678;13.314;2023-02-28T09:29:37;6.13;;;0.98;;
68803;SDS011;55787;52.678;13.314;2023-02-28T09:32:03;5.30;;;0.90;;
68803;SDS011;55787;52.678;13.314;2023-02-28T09:34:32;5.10;;;0.93;;
68803;SDS011;55787;52.678;13.314;2023-02-28T09:36:58;5.35;;;1.00;;
68803;SDS011;55787;52.678;13.314;2023-02-28T09:39:25;5.85;;;1.17;;
68803;SDS011;55787;52.678;13.314;2023-02-28T09:41:53;5.90;;;1.20;;
68803;SDS011;55787;52.678;13.314;2023-02-28T09:44:29;5.80;;;1.30;;
68803;SDS011;55787;52.678;13.314;2023-02-28T09:46:57;6.47;;;1.38;;
68803;SDS011;55787;52.678;13.314;2023-02-28T09:49:33;5.75;;;1.52;;
68803;SDS011;55787;52.678;13.314;2023-02-28T09:52:06;6.80;;;1.30;;
68803;SDS011;55787;52.678;13.314;2023-02-28T09:54:36;5.78;;;1.65;;
68803;SDS011;55787;52.678;13.314;2023-02-28T09:59:59;7.10;;;1.75;;
68803;SDS011;55787;52.678;13.314;2023-02-28T10:02:40;5.78;;;1.40;;
68803;SDS011;55787;52.678;13.314;2023-02-28T10:05:26;6.40;;;1.80;;
68803;SDS011;55787;52.678;13.314;2023-02-28T10:08:07;6.57;;;2.00;;
68803;SDS011;55787;52.678;13.314;2023-02-28T10:10:50;7.00;;;1.70;;
68803;SDS011;55787;52.678;13.314;2023-02-28T10:16:38;6.15;;;1.50;;
68803;SDS011;55787;52.678;13.314;2023-02-28T10:21:43;5.30;;;1.58;;
68803;SDS011;55787;52.678;13.314;2023-02-28T10:24:26;5.95;;;1.83;;
68803;SDS011;55787;52.678;13.314;2023-02-28T10:27:00;5.68;;;1.52;;
68803;SDS011;55787;52.678;13.314;2023-02-28T10:29:51;5.85;;;1.67;;
68803;SDS011;55787;52.678;13.314;2023-02-28T10:32:21;6.22;;;1.88;;
68803;SDS011;55787;52.678;13.314;2023-02-28T10:34:52;5.30;;;1.33;;
68803;SDS011;55787;52.678;13.314;2023-02-28T10:37:23;6.03;;;1.88;;
68803;SDS011;55787;52.678;13.314;2023-02-28T10:39:50;6.22;;;1.67;;
68803;SDS011;55787;52.678;13.314;2023-02-28T10:42:27;6.07;;;1.67;;
68803;SDS011;55787;52.678;13.314;2023-02-28T10:45:10;6.80;;;1.60;;
68803;SDS011;55787;52.678;13.314;2023-02-28T10:47:55;6.22;;;1.10;;
68803;SDS011;55787;52.678;13.314;2023-02-28T11:01:40;6.00;;;0.80;;
68803;SDS011;55787;52.678;13.314;2023-02-28T11:04:53;7.53;;;1.40;;
68803;SDS011;55787;52.678;13.314;2023-02-28T11:06:59;5.55;;;0.98;;
68803;SDS011;55787;52.678;13.314;2023-02-28T11:09:34;6.43;;;1.02;;
68803;SDS011;55787;52.678;13.314;2023-02-28T11:12:08;6.20;;;1.05;;
68803;SDS011;55787;52.678;13.314;2023-02-28T11:15:32;6.38;;;1.20;;
68803;SDS011;55787;52.678;13.314;2023-02-28T11:17:40;7.05;;;1.30;;
68803;SDS011;55787;52.678;13.314;2023-02-28T11:20:10;5.82;;;1.00;;
68803;SDS011;55787;52.678;13.314;2023-02-28T11:22:47;6.20;;;1.33;;
68803;SDS011;55787;52.678;13.314;2023-02-28T11:25:24;7.40;;;1.60;;
68803;SDS011;55787;52.678;13.314;2023-02-28T11:27:59;6.30;;;1.23;;
68803;SDS011;55787;52.678;13.314;2023-02-28T11:30:33;6.53;;;1.10;;
68803;SDS011;55787;52.678;13.314;2023-02-28T11:33:27;6.75;;;1.10;;
68803;SDS011;55787;52.678;13.314;2023-02-28T11:36:03;7.30;;;1.30;;
68803;SDS011;55787;52.678;13.314;2023-02-28T11:38:36;6.63;;;1.20;;
68803;SDS011;55787;52.678;13.314;2023-02-28T11:47:17;6.82;;;1.20;;
68803;SDS011;55787;52.678;13.314;2023-02-28T11:52:45;6.43;;;1.10;;
68803;SDS011;55787;52.678;13.314;2023-02-28T11:55:20;6.45;;;1.30;;
68803;SDS011;55787;52.678;13.314;2023-02-28T12:03:31;5.85;;;1.23;;
68803;SDS011;55787;52.678;13.314;2023-02-28T12:13:15;8.55;;;1.48;;
68803;SDS011;55787;52.678;13.314;2023-02-28T12:26:07;5.70;;;1.20;;
68803;SDS011;55787;52.678;13.314;2023-02-28T12:29:02;7.38;;;1.30;;
68803;SDS011;55787;52.678;13.314;2023-02-28T12:31:38;6.32;;;1.35;;
68803;SDS011;55787;52.678;13.314;2023-02-28T12:34:16;5.95;;;1.20;;
68803;SDS011;55787;52.678;13.314;2023-02-28T12:36:47;5.93;;;1.40;;
68803;SDS011;55787;52.678;13.314;2023-02-28T12:39:48;6.07;;;1.40;;
68803;SDS011;55787;52.678;13.314;2023-02-28T12:42:38;7.10;;;1.40;;
68803;SDS011;55787;52.678;13.314;2023-02-28T12:47:42;6.50;;;1.30;;
68803;SDS011;55787;52.678;13.314;2023-02-28T12:50:11;6.10;;;1.40;;
68803;SDS011;55787;52.678;13.314;2023-02-28T13:00:31;6.40;;;1.33;;
68803;SDS011;55787;52.678;13.314;2023-02-28T13:11:22;5.97;;;1.27;;
68803;SDS011;55787;52.678;13.314;2023-02-28T13:13:58;6.47;;;1.30;;
68803;SDS011;55787;52.678;13.314;2023-02-28T13:16:26;5.90;;;1.23;;
68803;SDS011;55787;52.678;13.314;2023-02-28T13:18:53;5.40;;;1.10;;
68803;SDS011;55787;52.678;13.314;2023-02-28T13:21:41;6.47;;;1.35;;
68803;SDS011;55787;52.678;13.314;2023-02-28T13:24:11;8.15;;;1.90;;
68803;SDS011;55787;52.678;13.314;2023-02-28T13:29:28;8.52;;;1.50;;
68803;SDS011;55787;52.678;13.314;2023-02-28T13:34:33;7.43;;;1.50;;
68803;SDS011;55787;52.678;13.314;2023-02-28T13:58:41;6.50;;;1.60;;
68803;SDS011;55787;52.678;13.314;2023-02-28T14:04:40;6.95;;;1.25;;
68803;SDS011;55787;52.678;13.314;2023-02-28T14:07:29;7.43;;;1.30;;
68803;SDS011;55787;52.678;13.314;2023-02-28T14:10:03;5.88;;;1.20;;
68803;SDS011;55787;52.678;13.314;2023-02-28T14:12:54;6.57;;;1.40;;
68803;SDS011;55787;52.678;13.314;2023-02-28T14:18:42;6.85;;;1.60;;
68803;SDS011;55787;52.678;13.314;2023-02-28T14:21:34;6.30;;;1.30;;
68803;SDS011;55787;52.678;13.314;2023-02-28T14:29:51;6.38;;;1.40;;
68803;SDS011;55787;52.678;13.314;2023-02-28T14:32:43;7.43;;;1.70;;
68803;SDS011;55787;52.678;13.314;2023-02-28T14:35:50;8.45;;;2.33;;
68803;SDS011;55787;52.678;13.314;2023-02-28T14:38:43;6.18;;;1.50;;
68803;SDS011;55787;52.678;13.314;2023-02-28T14:41:18;7.38;;;1.77;;
68803;SDS011;55787;52.678;13.314;2023-02-28T14:43:50;6.50;;;1.60;;
68803;SDS011;55787;52.678;13.314;2023-02-28T14:46:35;6.75;;;1.63;;
68803;SDS011;55787;52.678;13.314;2023-02-28T14:49:04;6.95;;;1.75;;
68803;SDS011;55787;52.678;13.314;2023-02-28T14:51:33;7.53;;;1.70;;
68803;SDS011;55787;52.678;13.314;2023-02-28T14:54:01;6.40;;;1.58;;
68803;SDS011;55787;52.678;13.314;2023-02-28T14:56:36;7.35;;;2.00;;
68803;SDS011;55787;52.678;13.314;2023-02-28T14:59:05;7.57;;;1.70;;
68803;SDS011;55787;52.678;13.314;2023-02-28T15:01:48;6.50;;;1.85;;
68803;SDS011;55787;52.678;13.314;2023-02-28T15:04:21;6.30;;;1.52;;
68803;SDS011;55787;52.678;13.314;2023-02-28T15:09:41;7.38;;;1.92;;
68803;SDS011;55787;52.678;13.314;2023-02-28T15:12:09;6.75;;;1.70;;
68803;SDS011;55787;52.678;13.314;2023-02-28T15:14:42;6.82;;;1.67;;
68803;SDS011;55787;52.678;13.314;2023-02-28T15:17:14;7.10;;;1.65;;
68803;SDS011;55787;52.678;13.314;2023-02-28T15:19:50;6.53;;;1.40;;
68803;SDS011;55787;52.678;13.314;2023-02-28T15:22:20;8.02;;;1.80;;
68803;SDS011;55787;52.678;13.314;2023-02-28T15:25:02;7.47;;;1.50;;
68803;SDS011;55787;52.678;13.314;2023-02-28T15:27:32;6.95;;;1.50;;
68803;SDS011;55787;52.678;13.314;2023-02-28T15:30:04;6.80;;;1.50;;
68803;SDS011;55787;52.678;13.314;2023-02-28T15:32:37;8.63;;;1.60;;
68803;SDS011;55787;52.678;13.314;2023-02-28T15:37:46;11.32;;;2.65;;
68803;SDS011;55787;52.678;13.314;2023-02-28T15:40:26;7.30;;;1.85;;
68803;SDS011;55787;52.678;13.314;2023-02-28T15:45:41;7.75;;;1.70;;
68803;SDS011;55787;52.678;13.314;2023-02-28T15:48:28;7.20;;;1.70;;
68803;SDS011;55787;52.678;13.314;2023-02-28T15:51:02;6.68;;;1.55;;
68803;SDS011;55787;52.678;13.314;2023-02-28T15:53:32;8.00;;;1.98;;
68803;SDS011;55787;52.678;13.314;2023-02-28T15:56:03;7.25;;;1.48;;
68803;SDS011;55787;52.678;13.314;2023-02-28T15:58:32;6.75;;;1.75;;
68803;SDS011;55787;52.678;13.314;2023-02-28T16:01:08;7.15;;;1.50;;
68803;SDS011;55787;52.678;13.314;2023-02-28T16:03:47;7.68;;;1.63;;
68803;SDS011;55787;52.678;13.314;2023-02-28T16:08:48;7.07;;;1.67;;
68803;SDS011;55787;52.678;13.314;2023-02-28T16:11:17;8.20;;;1.63;;
68803;SDS011;55787;52.678;13.314;2023-02-28T16:13:46;8.68;;;1.88;;
68803;SDS011;55787;52.678;13.314;2023-02-28T16:16:19;7.95;;;1.63;;
68803;SDS011;55787;52.678;13.314;2023-02-28T16:18:48;7.15;;;1.77;;
68803;SDS011;55787;52.678;13.314;2023-02-28T16:21:14;9.00;;;1.88;;
68803;SDS011;55787;52.678;13.314;2023-02-28T16:23:41;7.65;;;1.70;;
68803;SDS011;55787;52.678;13.314;2023-02-28T16:26:09;7.03;;;2.03;;
68803;SDS011;55787;52.678;13.314;2023-02-28T16:28:46;8.18;;;1.67;;
68803;SDS011;55787;52.678;13.314;2023-02-28T16:31:12;7.68;;;1.70;;
68803;SDS011;55787;52.678;13.314;2023-02-28T16:33:43;7.70;;;1.80;;
68803;SDS011;55787;52.678;13.314;2023-02-28T16:36:18;9.38;;;1.95;;
68803;SDS011;55787;52.678;13.314;2023-02-28T16:38:46;11.05;;;2.13;;
68803;SDS011;55787;52.678;13.314;2023-02-28T16:41:16;9.63;;;2.25;;
68803;SDS011;55787;52.678;13.314;2023-02-28T16:43:48;12.63;;;2.47;;
68803;SDS011;55787;52.678;13.314;2023-02-28T16:46:17;8.10;;;2.42;;
68803;SDS011;55787;52.678;13.314;2023-02-28T16:48:44;11.25;;;2.88;;
68803;SDS011;55787;52.678;13.314;2023-02-28T16:51:12;10.97;;;2.50;;
68803;SDS011;55787;52.678;13.314;2023-02-28T16:53:40;11.45;;;2.60;;
68803;SDS011;55787;52.678;13.314;2023-02-28T16:56:18;9.10;;;2.58;;
68803;SDS011;55787;52.678;13.314;2023-02-28T16:58:47;8.82;;;2.30;;
68803;SDS011;55787;52.678;13.314;2023-02-28T17:01:14;13.07;;;2.72;;
68803;SDS011;55787;52.678;13.314;2023-02-28T17:03:41;8.73;;;2.70;;
68803;SDS011;55787;52.678;13.314;2023-02-28T17:06:14;10.43;;;2.70;;
68803;SDS011;55787;52.678;13.314;2023-02-28T17:08:48;10.70;;;3.30;;
68803;SDS011;55787;52.678;13.314;2023-02-28T17:11:16;12.05;;;3.38;;
68803;SDS011;55787;52.678;13.314;2023-02-28T17:13:44;11.18;;;3.00;;
68803;SDS011;55787;52.678;13.314;2023-02-28T17:16:20;10.10;;;2.80;;
68803;SDS011;55787;52.678;13.314;2023-02-28T17:18:49;12.35;;;3.10;;
68803;SDS011;55787;52.678;13.314;2023-02-28T17:21:17;13.25;;;3.50;;
68803;SDS011;55787;52.678;13.314;2023-02-28T17:23:43;24.65;;;4.78;;
68803;SDS011;55787;52.678;13.314;2023-02-28T17:26:17;17.92;;;5.05;;
68803;SDS011;55787;52.678;13.314;2023-02-28T17:28:48;22.57;;;6.30;;
68803;SDS011;55787;52.678;13.314;2023-02-28T17:31:15;19.38;;;7.63;;
68803;SDS011;55787;52.678;13.314;2023-02-28T17:33:41;23.92;;;9.07;;
68803;SDS011;55787;52.678;13.314;2023-02-28T17:36:15;24.23;;;9.45;;